Time;durP1;ratioP1;P1;durP2;ratioP2;P2;SDS_P1;SDS_P2;PMS_P1;PMS_P2;Temp;Humidity;BMP_temperature;BMP_pressure;BME280_temperature;BME280_humidity;BME280_pressure;Samples;Min_cycle;Max_cycle;Signal;HPM_P1;HPM_P2
2021/05/11 00:00:28;;;;;;;8.05;3.40;;;;;;;;;;5110836;28;20040;-75
2021/05/11 00:02:54;;;;;;;8.18;2.85;;;;;;;;;;5110506;28;20020;-75
2021/05/11 00:05:21;;;;;;;5.03;2.97;;;;;;;;;;5109826;28;20464;-75
2021/05/11 00:07:47;;;;;;;5.53;3.03;;;;;;;;;;5110214;28;20031;-75
2021/05/11 00:10:13;;;;;;;8.07;3.00;;;;;;;;;;5109740;28;20016;-74
2021/05/11 00:13:05;;;;;;;6.13;3.40;;;;;;;;;;5110495;27;20385;-76
2021/05/11 00:15:31;;;;;;;8.88;4.32;;;;;;;;;;5110510;28;20028;-75
2021/05/11 00:17:58;;;;;;;4.78;3.15;;;;;;;;;;5110016;28;20028;-75
2021/05/11 00:20:24;;;;;;;6.32;3.35;;;;;;;;;;5109181;28;20024;-74
2021/05/11 00:23:44;;;;;;;5.07;2.63;;;;;;;;;;5110575;27;20950;-74
2021/05/11 00:26:10;;;;;;;5.85;3.05;;;;;;;;;;5110121;28;20484;-76
2021/05/11 00:30:46;;;;;;;4.80;3.03;;;;;;;;;;5110585;27;20381;-75
2021/05/11 00:33:12;;;;;;;8.38;3.17;;;;;;;;;;5108942;28;20032;-76
2021/05/11 00:35:38;;;;;;;6.75;2.50;;;;;;;;;;5109146;28;20028;-75
2021/05/11 00:38:05;;;;;;;4.85;3.22;;;;;;;;;;5110412;28;20444;-75
2021/05/11 00:45:51;;;;;;;5.78;2.92;;;;;;;;;;5109969;27;20446;-74
2021/05/11 00:48:17;;;;;;;6.57;3.13;;;;;;;;;;5110366;28;20031;-74
2021/05/11 00:50:43;;;;;;;6.90;3.30;;;;;;;;;;5110472;28;20032;-74
2021/05/11 00:53:09;;;;;;;5.00;3.03;;;;;;;;;;5108665;28;20504;-74
2021/05/11 00:58:31;;;;;;;6.18;3.22;;;;;;;;;;5110483;27;20385;-74
2021/05/11 01:01:17;;;;;;;6.28;3.08;;;;;;;;;;5110330;27;20426;-75
2021/05/11 01:05:24;;;;;;;5.18;3.03;;;;;;;;;;5110501;27;20441;-73
2021/05/11 01:07:50;;;;;;;5.55;3.00;;;;;;;;;;5108801;28;20035;-74
2021/05/11 01:10:16;;;;;;;8.23;2.97;;;;;;;;;;5110380;28;20087;-74
2021/05/11 01:12:42;;;;;;;6.47;3.00;;;;;;;;;;5110297;28;20049;-74
2021/05/11 01:15:09;;;;;;;8.23;3.10;;;;;;;;;;5109962;28;20058;-74
2021/05/11 01:18:14;;;;;;;6.50;2.95;;;;;;;;;;5110573;27;20430;-73
2021/05/11 01:24:49;;;;;;;7.38;3.38;;;;;;;;;;5110340;28;20516;-74
2021/05/11 01:50:03;;;;;;;5.05;2.65;;;;;;;;;;5110212;28;20035;-73
2021/05/11 02:25:02;;;;;;;6.32;2.60;;;;;;;;;;5109984;28;20046;-74
2021/05/11 02:27:28;;;;;;;3.78;2.72;;;;;;;;;;5110432;28;20027;-73
2021/05/11 02:33:27;;;;;;;6.35;2.75;;;;;;;;;;5110548;27;20373;-74
2021/05/11 02:35:53;;;;;;;5.50;2.63;;;;;;;;;;5110465;28;20418;-74
2021/05/11 02:38:21;;;;;;;4.75;2.88;;;;;;;;;;5110087;28;20031;-75
2021/05/11 02:40:47;;;;;;;4.97;2.97;;;;;;;;;;5110555;28;20024;-74
2021/05/11 02:43:23;;;;;;;6.82;3.45;;;;;;;;;;5110207;28;20388;-74
2021/05/11 02:45:49;;;;;;;5.20;2.90;;;;;;;;;;5108621;28;20028;-73
2021/05/11 02:48:16;;;;;;;5.40;2.90;;;;;;;;;;5110182;28;20099;-74
2021/05/11 02:52:00;;;;;;;8.00;3.38;;;;;;;;;;5172064;27;20114;-74
2021/05/11 02:54:26;;;;;;;5.22;2.80;;;;;;;;;;5151565;27;20031;-74
2021/05/11 02:56:52;;;;;;;5.78;3.08;;;;;;;;;;5133251;27;20019;-74
2021/05/11 02:59:18;;;;;;;5.25;2.97;;;;;;;;;;5151106;27;20068;-74
2021/05/11 03:01:45;;;;;;;4.78;2.65;;;;;;;;;;5151500;27;20019;-74
2021/05/11 03:04:11;;;;;;;8.43;3.65;;;;;;;;;;5151412;27;20027;-74
2021/05/11 03:06:37;;;;;;;5.25;3.10;;;;;;;;;;5151093;27;20023;-74
2021/05/11 03:09:04;;;;;;;6.43;3.15;;;;;;;;;;5151384;27;20015;-75
2021/05/11 03:11:30;;;;;;;6.78;3.88;;;;;;;;;;5151349;27;20474;-75
2021/05/11 03:13:56;;;;;;;7.78;3.90;;;;;;;;;;5132496;27;20594;-74
2021/05/11 03:16:24;;;;;;;7.05;3.42;;;;;;;;;;5151505;27;20027;-74
2021/05/11 03:18:50;;;;;;;9.05;3.30;;;;;;;;;;5151210;27;20063;-74
2021/05/11 03:21:16;;;;;;;7.65;3.40;;;;;;;;;;5151049;27;20019;-74
2021/05/11 03:23:43;;;;;;;6.40;3.97;;;;;;;;;;5151138;27;20023;-74
2021/05/11 03:26:09;;;;;;;5.57;2.80;;;;;;;;;;5150959;27;20124;-74
2021/05/11 03:28:35;;;;;;;7.13;3.67;;;;;;;;;;5150616;27;20097;-74
2021/05/11 03:31:01;;;;;;;12.85;3.97;;;;;;;;;;5150948;27;20035;-74
2021/05/11 03:33:27;;;;;;;7.22;4.15;;;;;;;;;;5150995;27;20019;-75
2021/05/11 03:35:53;;;;;;;8.77;4.95;;;;;;;;;;5132277;27;20046;-75
2021/05/11 03:38:19;;;;;;;7.35;3.83;;;;;;;;;;5132425;27;20023;-76
2021/05/11 03:40:46;;;;;;;8.10;4.03;;;;;;;;;;5132264;27;20539;-75
2021/05/11 03:43:16;;;;;;;7.05;3.60;;;;;;;;;;5131810;27;20027;-76
2021/05/11 03:45:48;;;;;;;8.32;3.95;;;;;;;;;;5132528;27;20387;-75
2021/05/11 03:48:14;;;;;;;10.85;2.97;;;;;;;;;;5150413;27;20083;-75
2021/05/11 03:50:40;;;;;;;4.68;3.33;;;;;;;;;;5150347;27;20051;-76
2021/05/11 03:53:06;;;;;;;6.97;3.65;;;;;;;;;;5131949;27;20114;-75
2021/05/11 03:55:32;;;;;;;9.52;3.70;;;;;;;;;;5131857;27;20031;-75
2021/05/11 03:57:59;;;;;;;6.47;3.20;;;;;;;;;;5150568;27;20023;-76
2021/05/11 04:00:25;;;;;;;8.10;3.85;;;;;;;;;;5131946;27;20530;-75
2021/05/11 04:02:51;;;;;;;6.32;3.70;;;;;;;;;;5120523;27;20027;-75
2021/05/11 04:05:20;;;;;;;8.45;4.70;;;;;;;;;;5136673;27;20094;-75
2021/05/11 04:07:48;;;;;;;8.88;4.60;;;;;;;;;;5136534;27;20212;-75
2021/05/11 04:17:25;;;;;;;6.57;3.63;;;;;;;;;;5110332;28;20046;-73
2021/05/11 04:19:51;;;;;;;5.88;3.58;;;;;;;;;;5109131;28;20047;-73
2021/05/11 04:22:17;;;;;;;7.15;3.90;;;;;;;;;;5110311;28;20455;-74
2021/05/11 04:24:43;;;;;;;9.55;3.65;;;;;;;;;;5108755;28;20028;-74
2021/05/11 04:27:09;;;;;;;5.97;3.30;;;;;;;;;;5110184;28;20468;-74
2021/05/11 04:29:36;;;;;;;11.32;3.78;;;;;;;;;;5110264;28;20028;-75
2021/05/11 04:32:02;;;;;;;7.82;3.13;;;;;;;;;;5109739;28;20035;-74
2021/05/11 04:34:28;;;;;;;7.15;3.60;;;;;;;;;;5108993;28;20098;-74
2021/05/11 04:36:54;;;;;;;7.10;3.50;;;;;;;;;;5109028;28;20128;-75
2021/05/11 04:39:20;;;;;;;7.43;3.95;;;;;;;;;;5108499;28;20028;-75
2021/05/11 04:41:47;;;;;;;5.57;3.47;;;;;;;;;;5110154;28;20027;-74
2021/05/11 04:44:14;;;;;;;5.82;2.78;;;;;;;;;;5110072;28;20027;-74
2021/05/11 04:46:58;;;;;;;7.20;3.60;;;;;;;;;;5109517;28;20023;-74
2021/05/11 04:49:25;;;;;;;5.93;3.38;;;;;;;;;;5109932;28;20046;-73
2021/05/11 04:51:51;;;;;;;5.22;2.72;;;;;;;;;;5109388;28;20035;-74
2021/05/11 04:54:17;;;;;;;5.70;3.53;;;;;;;;;;5108722;28;20169;-74
2021/05/11 04:58:30;;;;;;;5.28;2.92;;;;;;;;;;5110186;27;20108;-73
2021/05/11 05:02:00;;;;;;;5.10;2.95;;;;;;;;;;5110339;27;20451;-72
2021/05/11 05:04:28;;;;;;;5.45;3.30;;;;;;;;;;5107212;28;20066;-74
2021/05/11 05:09:30;;;;;;;8.20;4.05;;;;;;;;;;5113316;27;20116;-77
2021/05/11 05:11:57;;;;;;;8.38;3.88;;;;;;;;;;5110746;28;20023;-78
2021/05/11 05:14:23;;;;;;;8.60;3.88;;;;;;;;;;5110645;28;20016;-77
2021/05/11 05:16:49;;;;;;;10.52;4.30;;;;;;;;;;5107646;28;20376;-78
2021/05/11 05:23:18;;;;;;;10.32;4.18;;;;;;;;;;5111007;27;20396;-76
2021/05/11 05:25:57;;;;;;;10.00;5.15;;;;;;;;;;5109074;28;20035;-77
2021/05/11 05:30:13;;;;;;;7.57;3.80;;;;;;;;;;5110634;27;20442;-76
2021/05/11 05:35:31;;;;;;;11.05;4.28;;;;;;;;;;5110406;27;20426;-76
2021/05/11 05:37:57;;;;;;;8.85;3.92;;;;;;;;;;5120431;28;20023;-75
2021/05/11 05:43:01;;;;;;;5.82;3.03;;;;;;;;;;5109025;27;20389;-75
2021/05/11 05:45:27;;;;;;;7.18;3.22;;;;;;;;;;5110712;28;20035;-78
2021/05/11 05:47:54;;;;;;;10.70;3.92;;;;;;;;;;5107535;28;20065;-77
2021/05/11 05:50:25;;;;;;;8.27;4.10;;;;;;;;;;5109412;28;20019;-76
2021/05/11 05:52:57;;;;;;;10.85;4.22;;;;;;;;;;5108425;28;20516;-76
2021/05/11 05:55:23;;;;;;;7.15;3.55;;;;;;;;;;5110466;28;20077;-78
2021/05/11 06:00:04;;;;;;;7.97;3.75;;;;;;;;;;5110811;27;20358;-76
2021/05/11 06:02:30;;;;;;;7.15;3.88;;;;;;;;;;5109812;28;20032;-77
2021/05/11 06:04:57;;;;;;;9.10;3.35;;;;;;;;;;5107665;28;20027;-77
2021/05/11 06:08:44;;;;;;;7.97;3.45;;;;;;;;;;5109310;27;20381;-72
2021/05/11 06:13:49;;;;;;;8.27;3.92;;;;;;;;;;5096772;28;20376;-73
2021/05/11 06:19:01;;;;;;;5.82;2.67;;;;;;;;;;5108783;27;20116;-70
2021/05/11 06:21:58;;;;;;;6.32;3.20;;;;;;;;;;5108795;27;20384;-71
2021/05/11 06:28:54;;;;;;;5.30;3.10;;;;;;;;;;5191753;27;20309;-72
2021/05/11 06:31:20;;;;;;;11.07;4.28;;;;;;;;;;5169566;27;20034;-71
2021/05/11 06:35:34;;;;;;;7.72;3.83;;;;;;;;;;5047937;28;20388;-73
2021/05/11 06:38:00;;;;;;;8.25;3.47;;;;;;;;;;5048217;28;20052;-77
2021/05/11 06:40:28;;;;;;;6.30;3.33;;;;;;;;;;5047802;28;20018;-74
2021/05/11 06:42:55;;;;;;;6.35;3.15;;;;;;;;;;5049093;28;20551;-73
2021/05/11 06:48:29;;;;;;;8.52;3.92;;;;;;;;;;5108392;28;20104;-72
2021/05/11 06:54:07;;;;;;;7.38;3.50;;;;;;;;;;5110109;27;20393;-74
2021/05/11 06:57:30;;;;;;;4.72;2.75;;;;;;;;;;5109768;27;20426;-72
2021/05/11 06:59:56;;;;;;;5.72;2.90;;;;;;;;;;5109242;28;20478;-74
2021/05/11 07:02:22;;;;;;;6.20;3.25;;;;;;;;;;5108294;28;20102;-73
2021/05/11 07:04:49;;;;;;;5.88;3.20;;;;;;;;;;5108447;28;20483;-72
2021/05/11 07:07:16;;;;;;;6.25;3.10;;;;;;;;;;5105164;28;20032;-73
2021/05/11 07:14:58;;;;;;;9.88;3.00;;;;;;;;;;5109962;28;20441;-74
2021/05/11 07:19:35;;;;;;;6.65;3.03;;;;;;;;;;5109298;27;20446;-73
2021/05/11 07:23:54;;;;;;;3.97;2.30;;;;;;;;;;5110014;27;20446;-74
2021/05/11 07:29:08;;;;;;;6.00;2.70;;;;;;;;;;5109446;28;20031;-73
2021/05/11 07:32:34;;;;;;;6.10;3.38;;;;;;;;;;5109362;27;20449;-72
2021/05/11 07:35:02;;;;;;;3.97;2.40;;;;;;;;;;5108313;28;20031;-75
2021/05/11 07:37:28;;;;;;;5.30;2.80;;;;;;;;;;5124452;28;20023;-75
2021/05/11 07:39:54;;;;;;;6.10;3.00;;;;;;;;;;5094954;28;20060;-74
2021/05/11 07:42:20;;;;;;;9.13;4.60;;;;;;;;;;5087405;28;20020;-73
2021/05/11 07:44:49;;;;;;;6.40;2.50;;;;;;;;;;5101872;28;20027;-73
2021/05/11 07:50:13;;;;;;;5.07;2.70;;;;;;;;;;5108246;28;20103;-73
2021/05/11 08:14:26;;;;;;;4.43;2.45;;;;;;;;;;5089152;28;20046;-72
2021/05/11 08:16:26;;;;;;;9.18;2.20;;;;;;;;;;5088300;28;20039;-72
2021/05/11 08:29:41;;;;;;;3.47;1.80;;;;;;;;;;5109736;27;20380;-76
2021/05/11 08:32:07;;;;;;;5.55;2.42;;;;;;;;;;5109579;28;20092;-75
2021/05/11 08:34:33;;;;;;;4.95;2.60;;;;;;;;;;5108815;28;20450;-74
2021/05/11 08:36:59;;;;;;;3.00;2.00;;;;;;;;;;5109675;28;20024;-74
2021/05/11 08:41:20;;;;;;;10.43;2.72;;;;;;;;;;5110616;27;20385;-80
2021/05/11 08:43:46;;;;;;;6.75;2.70;;;;;;;;;;5108912;28;20471;-78
2021/05/11 08:46:13;;;;;;;5.57;2.50;;;;;;;;;;5110632;28;20418;-79
2021/05/11 08:48:40;;;;;;;9.30;2.67;;;;;;;;;;5110846;28;20020;-75
2021/05/11 09:06:38;;;;;;;5.57;1.65;;;;;;;;;;5109350;28;20042;-72
2021/05/11 09:09:57;;;;;;;4.10;1.90;;;;;;;;;;5107125;28;20028;-73
2021/05/11 09:23:35;;;;;;;3.60;2.13;;;;;;;;;;5107695;28;20050;-73
2021/05/11 09:33:31;;;;;;;5.25;2.38;;;;;;;;;;5108174;28;20034;-73
2021/05/11 09:52:09;;;;;;;3.97;2.40;;;;;;;;;;5108837;28;20178;-73
2021/05/11 10:00:23;;;;;;;5.22;2.42;;;;;;;;;;5109558;28;20376;-71
2021/05/11 10:47:08;;;;;;;5.57;2.65;;;;;;;;;;5101577;28;20438;-70
2021/05/11 10:49:38;;;;;;;7.65;1.90;;;;;;;;;;5107386;28;20016;-71
2021/05/11 10:52:06;;;;;;;3.15;1.80;;;;;;;;;;5106214;28;20028;-71
2021/05/11 10:54:41;;;;;;;3.67;1.77;;;;;;;;;;5092844;28;20035;-71
2021/05/11 10:57:54;;;;;;;4.35;1.85;;;;;;;;;;5092439;28;20024;-72
2021/05/11 11:00:30;;;;;;;3.70;1.73;;;;;;;;;;5031081;28;20025;-69
2021/05/11 11:03:22;;;;;;;4.57;1.90;;;;;;;;;;5031676;28;20601;-70
2021/05/11 11:06:01;;;;;;;4.10;1.80;;;;;;;;;;5079395;28;20488;-76
2021/05/11 11:08:28;;;;;;;4.70;1.90;;;;;;;;;;5093865;28;20040;-76
2021/05/11 11:11:07;;;;;;;4.68;2.20;;;;;;;;;;5093358;28;20552;-80
2021/05/11 11:13:33;;;;;;;4.65;2.28;;;;;;;;;;5094215;28;20078;-78
2021/05/11 11:16:02;;;;;;;3.83;2.08;;;;;;;;;;5094891;28;20103;-76
2021/05/11 11:18:29;;;;;;;4.00;1.85;;;;;;;;;;5097924;28;20146;-80
2021/05/11 11:21:19;;;;;;;4.72;1.95;;;;;;;;;;5097731;28;20032;-77
2021/05/11 11:23:53;;;;;;;3.42;1.98;;;;;;;;;;5099227;28;20047;-77
2021/05/11 11:26:26;;;;;;;5.15;1.95;;;;;;;;;;5093437;28;20016;-80
2021/05/11 11:29:00;;;;;;;3.75;2.17;;;;;;;;;;5095276;28;20028;-81
2021/05/11 11:31:27;;;;;;;4.88;2.20;;;;;;;;;;5094563;28;20024;-80
2021/05/11 11:33:54;;;;;;;5.57;2.47;;;;;;;;;;5095166;28;20028;-79
2021/05/11 11:36:34;;;;;;;6.38;2.70;;;;;;;;;;5095453;28;20624;-77
2021/05/11 11:39:04;;;;;;;5.20;2.60;;;;;;;;;;5094961;28;20035;-67
2021/05/11 11:41:30;;;;;;;7.18;2.85;;;;;;;;;;5093979;28;20503;-66
2021/05/11 11:43:56;;;;;;;6.55;2.58;;;;;;;;;;5094559;28;20071;-67
2021/05/11 11:46:27;;;;;;;7.35;4.03;;;;;;;;;;5094504;28;20027;-66
2021/05/11 11:49:04;;;;;;;3.25;1.92;;;;;;;;;;5094733;28;20069;-72
2021/05/11 11:51:32;;;;;;;4.75;2.45;;;;;;;;;;5096201;28;20024;-72
2021/05/11 11:54:06;;;;;;;4.85;1.95;;;;;;;;;;5094468;28;20016;-72
2021/05/11 11:59:18;;;;;;;4.47;2.25;;;;;;;;;;5093467;28;20062;-72
2021/05/11 12:01:54;;;;;;;6.95;2.17;;;;;;;;;;5091493;28;20032;-74
2021/05/11 12:04:20;;;;;;;7.45;1.90;;;;;;;;;;5091539;28;20023;-74
2021/05/11 12:06:49;;;;;;;4.00;1.77;;;;;;;;;;5091879;28;20020;-76
2021/05/11 12:09:15;;;;;;;2.85;1.50;;;;;;;;;;5091022;28;20100;-74
2021/05/11 12:11:42;;;;;;;5.68;1.80;;;;;;;;;;5091165;28;20028;-77
2021/05/11 12:14:08;;;;;;;4.13;2.05;;;;;;;;;;5091201;28;20024;-76
2021/05/11 12:16:41;;;;;;;2.33;1.60;;;;;;;;;;5093776;28;20388;-75
2021/05/11 12:19:17;;;;;;;3.17;1.90;;;;;;;;;;5093907;28;20039;-75
2021/05/11 12:21:49;;;;;;;3.80;2.00;;;;;;;;;;5093854;28;20142;-75
2021/05/11 12:24:15;;;;;;;;;;;;;;;;;;5091685;28;20115;-76
2021/05/11 12:26:42;;;;;;;3.80;1.95;;;;;;;;;;5092463;28;19908;-75
2021/05/11 12:29:08;;;;;;;3.35;2.00;;;;;;;;;;5093607;28;20020;-76
2021/05/11 12:31:35;;;;;;;5.38;2.88;;;;;;;;;;5093582;28;20499;-76
2021/05/11 12:34:04;;;;;;;5.00;2.47;;;;;;;;;;5092648;28;20028;-76
2021/05/11 12:36:30;;;;;;;5.22;2.35;;;;;;;;;;5090887;28;20027;-76
2021/05/11 12:39:17;;;;;;;6.18;3.05;;;;;;;;;;5093442;28;20024;-76
2021/05/11 12:41:43;;;;;;;5.55;2.97;;;;;;;;;;5091958;28;20048;-75
2021/05/11 12:44:26;;;;;;;5.13;2.33;;;;;;;;;;5093396;28;20468;-76
2021/05/11 12:46:52;;;;;;;;;;;;;;;;;;5094013;28;20026;-76
2021/05/11 12:49:18;;;;;;;10.13;2.47;;;;;;;;;;5093408;28;19908;-77
2021/05/11 12:51:50;;;;;;;4.45;2.38;;;;;;;;;;5093098;28;20070;-76
2021/05/11 12:54:31;;;;;;;6.00;2.63;;;;;;;;;;5093607;28;20024;-77
2021/05/11 13:15:42;;;;;;;9.15;3.97;;;;;;;;;;5093246;28;20082;-77
2021/05/11 13:25:39;;;;;;;9.18;4.72;;;;;;;;;;5092426;28;20468;-76
2021/05/11 13:33:16;;;;;;;9.48;5.28;;;;;;;;;;5092642;28;20032;-76
2021/05/11 13:35:43;;;;;;;9.82;5.95;;;;;;;;;;5092898;28;20020;-76
2021/05/11 13:38:09;;;;;;;9.32;5.95;;;;;;;;;;5092687;28;20024;-75
2021/05/11 13:40:35;;;;;;;10.45;7.22;;;;;;;;;;5092265;28;20024;-75
2021/05/11 13:43:01;;;;;;;9.73;5.53;;;;;;;;;;5092685;28;20373;-76
2021/05/11 13:45:28;;;;;;;10.68;5.93;;;;;;;;;;5092756;28;20016;-76
2021/05/11 13:48:01;;;;;;;10.35;6.13;;;;;;;;;;5092601;28;20049;-78
2021/05/11 13:50:41;;;;;;;9.95;5.75;;;;;;;;;;5091448;28;20021;-76
2021/05/11 13:53:07;;;;;;;13.75;6.47;;;;;;;;;;5091580;28;20157;-76
2021/05/11 13:56:20;;;;;;;10.75;6.50;;;;;;;;;;5092474;28;20478;-76
2021/05/11 14:03:52;;;;;;;8.77;5.47;;;;;;;;;;5092619;28;20077;-77
2021/05/11 14:06:18;;;;;;;10.23;5.80;;;;;;;;;;5092608;28;20055;-77
2021/05/11 14:08:45;;;;;;;9.65;5.35;;;;;;;;;;5092090;28;20020;-76
2021/05/11 14:11:11;;;;;;;8.90;5.85;;;;;;;;;;5092414;28;20020;-77
2021/05/11 14:13:37;;;;;;;9.63;6.38;;;;;;;;;;5092494;28;20024;-76
2021/05/11 14:16:03;;;;;;;10.88;7.13;;;;;;;;;;5092125;28;20016;-76
2021/05/11 14:18:29;;;;;;;12.07;7.40;;;;;;;;;;5092399;28;20109;-76
2021/05/11 14:20:56;;;;;;;17.70;9.00;;;;;;;;;;5090916;28;20024;-75
2021/05/11 14:23:22;;;;;;;14.63;7.88;;;;;;;;;;5092041;28;20036;-75
2021/05/11 14:25:48;;;;;;;11.77;6.95;;;;;;;;;;5091059;28;20073;-76
2021/05/11 14:28:14;;;;;;;10.27;5.82;;;;;;;;;;5093512;28;20481;-76
2021/05/11 14:30:41;;;;;;;8.68;5.32;;;;;;;;;;5095635;28;20031;-75
2021/05/11 14:33:07;;;;;;;12.75;7.53;;;;;;;;;;5095060;28;20021;-76
2021/05/11 14:35:33;;;;;;;10.95;7.43;;;;;;;;;;5095991;28;20550;-77
2021/05/11 14:37:59;;;;;;;11.45;6.93;;;;;;;;;;5096169;28;20434;-76
2021/05/11 14:40:26;;;;;;;11.98;6.90;;;;;;;;;;5096158;28;20050;-78
2021/05/11 14:42:53;;;;;;;12.30;7.15;;;;;;;;;;5095172;28;20056;-77
2021/05/11 14:45:20;;;;;;;9.40;6.20;;;;;;;;;;5095893;28;20022;-77
2021/05/11 14:47:46;;;;;;;12.30;7.32;;;;;;;;;;5094548;28;20024;-76
2021/05/11 14:50:16;;;;;;;10.43;6.35;;;;;;;;;;5094065;28;20315;-76
2021/05/11 14:52:42;;;;;;;9.00;5.90;;;;;;;;;;5094453;28;20024;-75
2021/05/11 14:55:09;;;;;;;10.63;5.63;;;;;;;;;;5095833;28;20388;-76
2021/05/11 14:57:35;;;;;;;9.20;5.75;;;;;;;;;;5095203;28;20042;-76
2021/05/11 15:00:01;;;;;;;10.65;5.85;;;;;;;;;;5095462;28;20066;-76
2021/05/11 15:02:28;;;;;;;9.52;5.40;;;;;;;;;;5095514;28;20107;-77
2021/05/11 15:04:54;;;;;;;9.95;4.65;;;;;;;;;;5095437;28;20023;-77
2021/05/11 15:07:20;;;;;;;12.32;6.68;;;;;;;;;;5095365;28;20032;-75
2021/05/11 15:09:47;;;;;;;11.57;6.47;;;;;;;;;;5095337;28;20055;-76
2021/05/11 15:12:13;;;;;;;12.43;7.63;;;;;;;;;;5095086;28;20108;-77
2021/05/11 15:14:39;;;;;;;9.82;5.85;;;;;;;;;;5095455;28;20598;-76
2021/05/11 15:19:50;;;;;;;13.90;7.28;;;;;;;;;;5094803;28;20028;-76
2021/05/11 15:22:17;;;;;;;10.13;6.13;;;;;;;;;;5093714;28;20169;-76
2021/05/11 15:24:43;;;;;;;10.75;6.80;;;;;;;;;;5094687;28;20578;-76
2021/05/11 15:27:09;;;;;;;11.88;8.65;;;;;;;;;;5094992;28;20029;-76
2021/05/11 15:29:37;;;;;;;12.73;8.07;;;;;;;;;;5095045;28;20472;-76
2021/05/11 15:32:23;;;;;;;11.18;7.00;;;;;;;;;;5094542;28;20032;-77
2021/05/11 15:34:49;;;;;;;9.15;5.72;;;;;;;;;;5094991;28;20433;-77
2021/05/11 15:37:16;;;;;;;9.73;5.45;;;;;;;;;;5095022;28;20024;-77
2021/05/11 15:39:45;;;;;;;9.50;5.75;;;;;;;;;;5094292;28;20028;-76
2021/05/11 15:42:11;;;;;;;11.10;7.35;;;;;;;;;;5094416;28;20400;-78
2021/05/11 15:44:37;;;;;;;13.02;6.90;;;;;;;;;;5093412;28;20046;-77
2021/05/11 15:47:03;;;;;;;11.00;6.05;;;;;;;;;;5094319;28;20035;-76
2021/05/11 15:49:30;;;;;;;8.85;5.93;;;;;;;;;;5094607;28;20027;-78
2021/05/11 15:51:56;;;;;;;9.77;6.00;;;;;;;;;;5094515;28;20020;-75
2021/05/11 15:54:23;;;;;;;11.13;6.75;;;;;;;;;;5094359;28;20027;-77
2021/05/11 15:56:49;;;;;;;10.55;6.00;;;;;;;;;;5094808;28;20035;-76
2021/05/11 15:59:15;;;;;;;12.40;4.95;;;;;;;;;;5093028;28;20023;-76
2021/05/11 16:01:41;;;;;;;9.25;3.90;;;;;;;;;;5093905;28;20062;-76
2021/05/11 16:04:07;;;;;;;8.68;4.30;;;;;;;;;;5093020;28;20028;-76
2021/05/11 16:06:33;;;;;;;7.22;3.95;;;;;;;;;;5094241;28;20028;-76
2021/05/11 16:09:00;;;;;;;6.97;3.42;;;;;;;;;;5093883;28;20031;-75
2021/05/11 16:11:26;;;;;;;7.45;3.58;;;;;;;;;;5094131;28;20505;-76
2021/05/11 16:13:52;;;;;;;8.35;3.10;;;;;;;;;;5093901;28;20034;-76
2021/05/11 16:16:18;;;;;;;5.93;3.20;;;;;;;;;;5094304;28;20020;-76
2021/05/11 16:18:44;;;;;;;5.68;2.72;;;;;;;;;;5094059;28;20021;-75
2021/05/11 16:21:10;;;;;;;4.72;2.60;;;;;;;;;;5092077;28;20028;-76
2021/05/11 16:23:37;;;;;;;5.50;2.00;;;;;;;;;;5093861;28;20028;-75
2021/05/11 16:26:03;;;;;;;4.38;2.60;;;;;;;;;;5093796;28;20115;-75
2021/05/11 16:28:29;;;;;;;4.93;2.10;;;;;;;;;;5093399;28;20024;-75
2021/05/11 16:30:55;;;;;;;2.95;1.90;;;;;;;;;;5093558;28;20098;-75
2021/05/11 16:33:21;;;;;;;7.78;2.05;;;;;;;;;;5093682;28;20691;-75
2021/05/11 16:35:48;;;;;;;4.35;2.00;;;;;;;;;;5093669;28;20020;-75
2021/05/11 16:38:14;;;;;;;7.93;1.98;;;;;;;;;;5093547;28;20035;-75
2021/05/11 16:40:41;;;;;;;3.92;2.08;;;;;;;;;;5092022;28;20115;-75
2021/05/11 16:43:07;;;;;;;3.28;1.92;;;;;;;;;;5093065;28;20458;-74
2021/05/11 16:45:35;;;;;;;4.85;2.17;;;;;;;;;;5093378;28;20024;-75
2021/05/11 16:48:01;;;;;;;6.35;2.38;;;;;;;;;;5092012;28;20024;-76
2021/05/11 16:50:29;;;;;;;8.55;2.53;;;;;;;;;;5091195;28;20020;-74
2021/05/11 16:52:56;;;;;;;4.55;1.90;;;;;;;;;;5093446;28;20027;-75
2021/05/11 16:55:26;;;;;;;5.55;2.35;;;;;;;;;;5093503;28;20150;-76
2021/05/11 16:57:52;;;;;;;4.53;2.20;;;;;;;;;;5092840;28;20028;-75
2021/05/11 17:00:21;;;;;;;8.55;2.47;;;;;;;;;;5093228;28;20392;-74
2021/05/11 17:02:47;;;;;;;3.90;2.17;;;;;;;;;;5093022;28;20032;-74
2021/05/11 17:05:14;;;;;;;5.65;2.67;;;;;;;;;;5092562;28;20020;-74
2021/05/11 17:07:40;;;;;;;6.93;2.83;;;;;;;;;;5093103;28;20048;-74
2021/05/11 17:10:08;;;;;;;4.57;2.45;;;;;;;;;;5091327;28;20020;-74
2021/05/11 17:12:34;;;;;;;4.97;2.50;;;;;;;;;;5093331;28;20024;-74
2021/05/11 17:15:00;;;;;;;8.00;3.15;;;;;;;;;;5093000;28;20035;-74
2021/05/11 17:17:26;;;;;;;6.22;2.17;;;;;;;;;;5092524;28;20135;-74
2021/05/11 17:19:53;;;;;;;11.35;3.55;;;;;;;;;;5092840;28;20028;-73
2021/05/11 17:22:19;;;;;;;5.72;2.58;;;;;;;;;;5091468;28;20046;-74
2021/05/11 17:24:45;;;;;;;4.43;2.38;;;;;;;;;;5092356;28;20073;-74
2021/05/11 17:27:11;;;;;;;7.05;3.15;;;;;;;;;;5091379;28;20028;-76
2021/05/11 17:29:37;;;;;;;7.50;2.47;;;;;;;;;;5091505;28;20020;-75
2021/05/11 17:32:06;;;;;;;7.65;3.40;;;;;;;;;;5092475;28;20502;-75
2021/05/11 17:34:32;;;;;;;6.65;2.53;;;;;;;;;;5092886;28;20065;-75
2021/05/11 17:36:58;;;;;;;5.57;2.70;;;;;;;;;;5091443;28;20131;-75
2021/05/11 17:39:25;;;;;;;3.88;2.17;;;;;;;;;;5092219;28;20027;-76
2021/05/11 17:41:51;;;;;;;3.35;2.13;;;;;;;;;;5092375;28;20044;-75
2021/05/11 17:44:17;;;;;;;3.33;1.92;;;;;;;;;;5092628;28;20420;-75
2021/05/11 17:46:43;;;;;;;5.35;2.20;;;;;;;;;;5092211;28;20036;-74
2021/05/11 17:49:09;;;;;;;7.97;2.83;;;;;;;;;;5092604;28;20043;-75
2021/05/11 17:51:35;;;;;;;4.00;1.95;;;;;;;;;;5091502;28;20380;-75
2021/05/11 17:54:02;;;;;;;4.43;2.08;;;;;;;;;;5092481;28;20024;-75
2021/05/11 17:56:31;;;;;;;4.78;2.55;;;;;;;;;;5092845;28;20013;-74
2021/05/11 17:58:58;;;;;;;5.50;2.65;;;;;;;;;;5092569;28;20027;-75
2021/05/11 18:01:24;;;;;;;5.15;2.30;;;;;;;;;;5091807;28;20078;-75
2021/05/11 18:03:52;;;;;;;4.93;2.25;;;;;;;;;;5094709;28;20032;-74
2021/05/11 18:06:19;;;;;;;4.75;2.65;;;;;;;;;;5096501;28;20108;-74
2021/05/11 18:08:45;;;;;;;7.55;2.72;;;;;;;;;;5096505;28;20469;-74
2021/05/11 18:11:11;;;;;;;4.90;3.00;;;;;;;;;;5096149;28;20436;-74
2021/05/11 18:13:37;;;;;;;5.75;3.10;;;;;;;;;;5096172;28;20024;-73
2021/05/11 18:16:08;;;;;;;3.83;2.47;;;;;;;;;;5096679;28;20380;-74
2021/05/11 18:18:34;;;;;;;4.72;2.30;;;;;;;;;;5096393;28;20024;-73
2021/05/11 18:22:58;;;;;;;5.45;2.22;;;;;;;;;;5110476;27;20385;-75
2021/05/11 18:25:24;;;;;;;3.33;1.70;;;;;;;;;;5109289;28;20468;-75
2021/05/11 18:27:50;;;;;;;5.10;2.28;;;;;;;;;;5108755;28;20035;-75
2021/05/11 18:32:11;;;;;;;6.18;2.05;;;;;;;;;;5110487;27;20377;-75
2021/05/11 18:34:38;;;;;;;7.53;2.33;;;;;;;;;;5110349;28;20034;-74
2021/05/11 18:37:30;;;;;;;3.58;2.00;;;;;;;;;;5109455;28;20535;-75
2021/05/11 18:39:51;;;;;;;4.35;1.90;;;;;;;;;;5110041;28;20040;-74
2021/05/11 18:42:17;;;;;;;5.68;1.95;;;;;;;;;;5110009;28;20031;-76
2021/05/11 18:44:43;;;;;;;4.13;1.67;;;;;;;;;;5110318;28;20020;-75
2021/05/11 18:47:10;;;;;;;5.75;2.00;;;;;;;;;;5110333;28;20103;-75
2021/05/11 18:49:36;;;;;;;4.18;2.00;;;;;;;;;;5109757;28;20480;-75
2021/05/11 18:52:02;;;;;;;5.80;2.08;;;;;;;;;;5110199;28;20024;-75
2021/05/11 18:54:28;;;;;;;3.28;1.90;;;;;;;;;;5110840;28;20364;-75
2021/05/11 18:56:54;;;;;;;3.97;2.25;;;;;;;;;;5108513;28;20114;-75
2021/05/11 18:59:21;;;;;;;4.13;2.13;;;;;;;;;;5109997;28;20487;-76
2021/05/11 19:01:47;;;;;;;5.75;1.58;;;;;;;;;;5109962;28;20026;-75
2021/05/11 19:04:13;;;;;;;2.72;1.67;;;;;;;;;;5109592;28;20031;-76
2021/05/11 19:06:39;;;;;;;2.83;1.50;;;;;;;;;;5109819;28;20468;-75
2021/05/11 19:09:07;;;;;;;2.75;1.73;;;;;;;;;;5109831;28;20027;-76
2021/05/11 19:11:37;;;;;;;3.45;1.75;;;;;;;;;;5109208;28;20024;-73
2021/05/11 19:14:06;;;;;;;5.22;1.77;;;;;;;;;;5109894;28;20095;-74
2021/05/11 19:16:32;;;;;;;4.70;1.58;;;;;;;;;;5109598;28;20031;-74
2021/05/11 19:18:58;;;;;;;3.15;1.65;;;;;;;;;;5109285;28;20019;-74
2021/05/11 19:21:25;;;;;;;3.75;1.45;;;;;;;;;;5109526;28;20028;-75
2021/05/11 19:23:53;;;;;;;6.85;1.90;;;;;;;;;;5107667;28;20019;-74
2021/05/11 19:26:19;;;;;;;4.05;1.90;;;;;;;;;;5107848;28;20070;-77
2021/05/11 19:28:45;;;;;;;5.50;2.08;;;;;;;;;;5108299;28;20027;-75
2021/05/11 19:31:12;;;;;;;2.65;1.60;;;;;;;;;;5107458;28;20495;-75
2021/05/11 19:33:44;;;;;;;4.88;2.10;;;;;;;;;;5109511;28;20349;-74
2021/05/11 19:36:11;;;;;;;6.93;1.90;;;;;;;;;;5108073;28;20031;-76
2021/05/11 19:38:39;;;;;;;6.00;2.17;;;;;;;;;;5108977;28;20062;-76
2021/05/11 19:41:06;;;;;;;6.57;2.10;;;;;;;;;;5107845;28;20027;-75
2021/05/11 19:43:33;;;;;;;3.88;1.83;;;;;;;;;;5095179;28;20075;-76
2021/05/11 19:45:59;;;;;;;5.05;1.60;;;;;;;;;;5093711;28;20098;-75
2021/05/11 19:48:25;;;;;;;3.85;1.45;;;;;;;;;;5095326;28;20081;-76
2021/05/11 19:50:52;;;;;;;2.97;1.83;;;;;;;;;;5095447;28;20036;-76
2021/05/11 19:53:18;;;;;;;3.60;1.90;;;;;;;;;;5093878;28;20016;-76
2021/05/11 19:55:44;;;;;;;4.40;1.63;;;;;;;;;;5095406;28;20053;-76
2021/05/11 19:58:11;;;;;;;8.98;2.40;;;;;;;;;;5095357;28;20426;-75
2021/05/11 20:00:38;;;;;;;5.57;2.22;;;;;;;;;;5094889;28;20376;-75
2021/05/11 20:03:04;;;;;;;6.38;2.35;;;;;;;;;;5095156;28;20028;-75
2021/05/11 20:05:31;;;;;;;3.67;1.70;;;;;;;;;;5093932;28;20031;-75